Thomas, Illinois
Current Conditions -  °F | °C
As of 7:15 PM on Saturday 20 Dec 2014 (Local Time) from KSQI Reporting Station
Overcast Overcast  
Wind Chill: 32°   Ceiling: 3300
Heat Index: 32°   Visibility: 7mi
Dew Point: 27°   Wind: 3mph
Humidity: 80%   Direction: 120°ESE
Pressure: 30.24"   Gusts: NA
Location:  41.6367°N, 89.7881°W
Report Text: KSQI 210115Z 12003KT 7SM OVC033 00/M03 A3024 RMK AO1
Loading
Personal Weather Stations






























Interactive Weather Map New forecast layout! Learn more

10-Day Weather Forecast

Advertisements
Track Severe Weather on mobile